createdAt,value
2022-10-05T00:03:36.240Z,102072.34
2022-10-05T00:08:33.492Z,102072.22
2022-10-05T00:13:31.344Z,102077.34
2022-10-05T00:18:27.832Z,102085.16
2022-10-05T00:23:26.161Z,102089.47
2022-10-05T00:28:26.409Z,102092.00
2022-10-05T00:33:25.384Z,102094.69
2022-10-05T00:38:23.589Z,102101.78
2022-10-05T00:43:35.333Z,102105.28
2022-10-05T00:48:38.518Z,102104.00
2022-10-05T00:53:42.884Z,102098.59
2022-10-05T00:58:48.783Z,102118.56
2022-10-05T01:03:56.979Z,102113.78
2022-10-05T01:08:59.293Z,102116.06
2022-10-05T01:14:02.361Z,102121.56
2022-10-05T01:19:06.271Z,102114.75
2022-10-05T01:24:26.804Z,102120.50
2022-10-05T01:29:26.319Z,102137.91
2022-10-05T01:34:31.023Z,102134.72
2022-10-05T01:39:32.018Z,102133.91
2022-10-05T01:44:31.028Z,102133.13
2022-10-05T01:49:33.672Z,102123.53
2022-10-05T01:54:37.367Z,102116.81
2022-10-05T01:59:40.384Z,102127.28
2022-10-05T02:09:58.580Z,102142.19
2022-10-05T02:14:58.070Z,102146.84
2022-10-05T02:19:58.538Z,102167.06
2022-10-05T02:24:57.334Z,102167.00
2022-10-05T02:29:59.431Z,102177.66
2022-10-05T02:35:01.989Z,102177.88
2022-10-05T02:40:04.900Z,102190.75
2022-10-05T02:45:08.561Z,102188.50
2022-10-05T02:50:11.854Z,102199.91
2022-10-05T02:55:13.088Z,102204.47
2022-10-05T03:00:13.667Z,102203.19
2022-10-05T03:05:17.092Z,102204.31
2022-10-05T03:10:21.005Z,102209.66
2022-10-05T03:15:31.647Z,102224.53
2022-10-05T03:20:34.230Z,102233.53
2022-10-05T03:25:36.165Z,102242.28
2022-10-05T03:30:37.635Z,102252.44
2022-10-05T03:35:42.846Z,102249.94
2022-10-05T03:40:42.018Z,102249.81
2022-10-05T03:45:42.524Z,102257.97
2022-10-05T03:50:44.365Z,102260.34
2022-10-05T03:55:50.366Z,102263.28
2022-10-05T04:00:51.696Z,102277.34
2022-10-05T04:05:50.245Z,102286.75
2022-10-05T04:10:52.230Z,102291.94
2022-10-05T04:15:56.054Z,102304.31
2022-10-05T04:20:56.130Z,102327.34
2022-10-05T04:25:56.374Z,102325.00
2022-10-05T04:30:53.751Z,102333.97
2022-10-05T04:36:04.718Z,102335.44
2022-10-05T04:41:10.759Z,102332.81
2022-10-05T04:46:14.979Z,102342.59
2022-10-05T04:51:19.616Z,102332.19
2022-10-05T04:56:21.261Z,102353.13
2022-10-05T05:01:26.555Z,102353.25
2022-10-05T05:06:30.233Z,102358.84
2022-10-05T05:11:38.576Z,102346.28
2022-10-05T05:16:37.794Z,102364.53
2022-10-05T05:21:42.447Z,102373.59
2022-10-05T05:26:46.775Z,102379.78
2022-10-05T05:31:46.117Z,102377.59
2022-10-05T05:36:56.247Z,102393.81
2022-10-05T05:41:59.665Z,102400.09
2022-10-05T05:47:05.109Z,102391.88
2022-10-05T05:52:13.348Z,102403.13
2022-10-05T05:57:16.468Z,102407.44
2022-10-05T06:02:19.234Z,102408.59
2022-10-05T06:07:30.566Z,102408.03
2022-10-05T06:12:31.814Z,102423.56
2022-10-05T06:17:32.754Z,102419.31
2022-10-05T06:22:39.940Z,102432.75
2022-10-05T06:27:38.755Z,102445.03
2022-10-05T06:32:46.365Z,102457.97
2022-10-05T06:37:54.801Z,102468.88
2022-10-05T06:43:01.340Z,102473.16
2022-10-05T06:48:15.027Z,102474.25
2022-10-05T06:54:05.309Z,102456.72
2022-10-05T06:59:52.883Z,102473.19
2022-10-05T07:05:26.011Z,102478.56
2022-10-05T07:10:52.372Z,102472.19
2022-10-05T07:16:37.395Z,102467.09
2022-10-05T07:22:04.514Z,102471.63
2022-10-05T07:33:24.952Z,102486.28
2022-10-05T07:44:56.930Z,102495.75
2022-10-05T07:50:20.384Z,102488.25
2022-10-05T07:55:28.916Z,102491.00
2022-10-05T08:00:41.961Z,102477.69
2022-10-05T08:05:46.395Z,102486.81
2022-10-05T08:16:46.961Z,102495.41
2022-10-05T08:22:13.643Z,102504.84
2022-10-05T08:27:30.138Z,102505.72
2022-10-05T08:33:05.705Z,102503.09
2022-10-05T08:38:09.797Z,102508.19
2022-10-05T08:43:42.746Z,102506.22
2022-10-05T08:49:13.835Z,102508.97
2022-10-05T08:54:56.341Z,102507.47
2022-10-05T09:00:36.301Z,102492.13
2022-10-05T09:06:25.184Z,102517.16
2022-10-05T09:11:34.610Z,102513.75
2022-10-05T09:16:47.182Z,102512.13
2022-10-05T09:21:56.785Z,102517.03
2022-10-05T09:27:07.602Z,102521.72
2022-10-05T09:32:20.016Z,102522.41
2022-10-05T09:37:37.959Z,102514.06
2022-10-05T09:42:54.925Z,102519.09
2022-10-05T09:48:06.475Z,102515.34
2022-10-05T09:53:06.024Z,102512.25
2022-10-05T09:58:38.102Z,102510.06
2022-10-05T10:03:53.265Z,102503.31
2022-10-05T10:09:01.388Z,102496.94
2022-10-05T10:14:12.959Z,102488.81
2022-10-05T10:19:23.460Z,102485.00
2022-10-05T10:24:31.610Z,102482.88
2022-10-05T10:29:46.810Z,102476.44
2022-10-05T10:34:57.475Z,102470.75
2022-10-05T10:40:08.201Z,102462.56
2022-10-05T10:45:30.239Z,102457.19
2022-10-05T10:50:44.503Z,102441.88
2022-10-05T10:55:49.437Z,102433.41
2022-10-05T11:00:50.235Z,102438.25
2022-10-05T11:06:17.179Z,102422.06
2022-10-05T11:11:27.135Z,102414.75
2022-10-05T11:16:41.635Z,102412.94
2022-10-05T11:21:45.009Z,102398.59
2022-10-05T11:26:58.145Z,102401.16
2022-10-05T11:32:09.796Z,102401.75
2022-10-05T11:37:21.391Z,102396.44
2022-10-05T11:42:32.387Z,102394.44
2022-10-05T11:47:37.877Z,102387.53
2022-10-05T11:52:40.295Z,102406.66
2022-10-05T11:57:41.722Z,102416.22
2022-10-05T12:03:06.282Z,102425.34
2022-10-05T12:08:11.326Z,102409.97
2022-10-05T12:13:20.895Z,102415.94
2022-10-05T12:18:25.649Z,102406.09
2022-10-05T12:23:25.875Z,102395.94
2022-10-05T12:28:29.416Z,102386.06
2022-10-05T12:33:30.608Z,102378.94
2022-10-05T12:38:33.969Z,102366.25
2022-10-05T12:43:38.383Z,102357.41
2022-10-05T12:48:45.000Z,102342.19
2022-10-05T12:53:49.321Z,102377.75
2022-10-05T12:58:52.735Z,102381.94
2022-10-05T13:03:52.665Z,102384.44
2022-10-05T13:08:55.292Z,102379.16
2022-10-05T13:14:02.050Z,102385.28
2022-10-05T13:19:16.701Z,102386.97
2022-10-05T13:24:20.271Z,102377.25
2022-10-05T13:29:22.252Z,102377.09
2022-10-05T13:34:24.043Z,102383.44
2022-10-05T13:39:30.506Z,102358.00
2022-10-05T13:44:33.611Z,102370.81
2022-10-05T13:49:37.267Z,102369.56
2022-10-05T13:54:37.693Z,102345.53
2022-10-05T13:59:43.814Z,102347.41
2022-10-05T14:04:44.629Z,102339.41
2022-10-05T14:09:47.657Z,102340.34
2022-10-05T14:14:46.930Z,102336.63
2022-10-05T14:19:45.108Z,102335.72
2022-10-05T14:24:48.110Z,102343.69
2022-10-05T14:29:52.403Z,102346.28
2022-10-05T14:35:00.592Z,102348.44
2022-10-05T14:39:59.866Z,102351.44
2022-10-05T14:44:58.878Z,102350.03
2022-10-05T14:50:15.531Z,102349.78
2022-10-05T14:55:17.709Z,102348.56
2022-10-05T15:00:16.108Z,102350.59
2022-10-05T15:05:16.260Z,102359.88
2022-10-05T15:10:28.996Z,102356.34
2022-10-05T15:15:28.300Z,102362.91
2022-10-05T15:20:30.720Z,102363.19
2022-10-05T15:25:32.348Z,102374.69
2022-10-05T15:30:30.611Z,102372.53
2022-10-05T15:35:42.036Z,102382.97
2022-10-05T15:40:41.700Z,102385.63
2022-10-05T15:45:43.220Z,102383.41
2022-10-05T15:50:57.730Z,102399.22
2022-10-05T15:55:56.357Z,102383.25
2022-10-05T16:01:02.509Z,102365.56
2022-10-05T16:06:24.433Z,102386.88
2022-10-05T16:11:30.144Z,102395.63
2022-10-05T16:16:31.976Z,102384.63
2022-10-05T16:21:31.962Z,102396.06
2022-10-05T16:26:38.090Z,102398.72
2022-10-05T16:31:43.405Z,102406.44
2022-10-05T16:36:47.853Z,102400.72
2022-10-05T16:41:49.598Z,102398.19
2022-10-05T16:46:50.078Z,102400.75
2022-10-05T16:51:54.639Z,102413.06
2022-10-05T16:57:03.118Z,102413.53
2022-10-05T17:02:06.045Z,102431.16
2022-10-05T17:07:17.478Z,102429.16
2022-10-05T17:12:22.345Z,102426.66
2022-10-05T17:17:29.158Z,102427.81
2022-10-05T17:22:28.303Z,102437.09
2022-10-05T17:27:33.923Z,102451.78
2022-10-05T17:32:33.775Z,102438.66
2022-10-05T17:37:35.149Z,102445.94
2022-10-05T17:42:48.556Z,102451.50
2022-10-05T17:47:58.384Z,102457.63
2022-10-05T17:53:27.944Z,102458.38
2022-10-05T17:58:44.155Z,102464.00
2022-10-05T18:03:42.551Z,102472.34
2022-10-05T18:08:40.742Z,102481.16
2022-10-05T18:13:41.035Z,102479.28
2022-10-05T18:18:56.580Z,102477.38
2022-10-05T18:24:04.741Z,102465.53
2022-10-05T18:29:13.443Z,102479.25
2022-10-05T18:34:21.064Z,102482.50
2022-10-05T18:39:34.013Z,102457.47
2022-10-05T18:44:34.160Z,102480.47
2022-10-05T18:49:48.308Z,102478.13
2022-10-05T18:54:54.483Z,102478.28
2022-10-05T18:59:55.017Z,102483.22
2022-10-05T19:04:59.395Z,102486.06
2022-10-05T19:10:03.066Z,102484.50
2022-10-05T19:15:06.041Z,102494.53
2022-10-05T19:20:16.642Z,102486.66
2022-10-05T19:25:25.597Z,102490.94
2022-10-05T19:30:23.401Z,102472.84
2022-10-05T19:35:25.157Z,102485.19
2022-10-05T19:40:29.036Z,102494.16
2022-10-05T19:45:26.254Z,102494.34
2022-10-05T19:50:27.330Z,102496.97
2022-10-05T19:55:25.688Z,102496.44
2022-10-05T20:00:24.140Z,102501.09
2022-10-05T20:05:20.828Z,102500.50
2022-10-05T20:10:23.757Z,102514.94
2022-10-05T20:15:45.800Z,102505.41
2022-10-05T20:20:45.858Z,102505.31
2022-10-05T20:26:06.674Z,102508.41
2022-10-05T20:31:06.649Z,102507.25
2022-10-05T20:36:04.044Z,102503.50
2022-10-05T20:41:00.640Z,102499.97
2022-10-05T20:45:58.344Z,102508.94
2022-10-05T20:50:55.681Z,102508.81
2022-10-05T20:55:52.193Z,102503.91
2022-10-05T21:01:06.890Z,102509.59
2022-10-05T21:06:04.239Z,102505.34
2022-10-05T21:11:00.995Z,102503.66
2022-10-05T21:15:57.525Z,102494.50
2022-10-05T21:20:56.614Z,102491.78
2022-10-05T21:25:58.958Z,102488.19
2022-10-05T21:30:55.556Z,102482.72
2022-10-05T21:35:54.141Z,102477.56
2022-10-05T21:40:50.745Z,102476.72
2022-10-05T21:45:48.093Z,102475.56
2022-10-05T21:50:48.907Z,102482.16
2022-10-05T21:55:49.364Z,102480.50
2022-10-05T22:00:48.910Z,102472.84
2022-10-05T22:05:49.313Z,102476.81
2022-10-05T22:10:45.984Z,102458.59
2022-10-05T22:15:43.153Z,102475.56
2022-10-05T22:20:39.650Z,102467.84
2022-10-05T22:25:37.038Z,102463.97
2022-10-05T22:30:33.585Z,102461.22
2022-10-05T22:35:31.314Z,102460.84
2022-10-05T22:40:27.810Z,102463.19
2022-10-05T22:45:29.155Z,102462.50
2022-10-05T22:50:28.334Z,102469.06
2022-10-05T22:55:24.846Z,102466.09
2022-10-05T23:00:35.150Z,102475.69
2022-10-05T23:05:41.502Z,102468.16
2022-10-05T23:10:41.115Z,102458.31
2022-10-05T23:15:39.773Z,102464.13
2022-10-05T23:20:36.444Z,102442.81
2022-10-05T23:25:36.094Z,102448.97
2022-10-05T23:30:32.804Z,102458.03
2022-10-05T23:35:29.364Z,102452.53
2022-10-05T23:40:28.881Z,102450.94
2022-10-05T23:45:28.437Z,102448.91
2022-10-05T23:50:29.413Z,102457.19
2022-10-05T23:55:26.000Z,102457.00
